Time,TemperatureF,DewpointF,PressureIn,WindDirection,WindDirectionDegrees,WindSpeedMPH,WindSpeedGustMPH,Humidity,HourlyPrecipIn,Conditions,Clouds,dailyrainin,SolarRadiationWatts/m^2,SoftwareType,DateUTC
2013-08-29 00:00:00,76.3,71.5,29.99,NNE,19,0.0,6.0,85,0.00,,,0.00,0,Wunderground v.1.15,2013-08-29 04:00:00,
2013-08-29 01:00:00,74.9,70.8,29.98,NNE,19,0.0,6.0,87,0.00,,,0.00,0,Wunderground v.1.15,2013-08-29 05:00:00,
2013-08-29 02:00:00,74.6,70.5,29.97,NNE,18,0.0,6.0,87,0.00,,,0.00,0,Wunderground v.1.15,2013-08-29 06:00:00,
2013-08-29 03:00:00,74.4,69.6,29.97,NNE,18,0.0,6.0,85,0.00,,,0.00,0,Wunderground v.1.15,2013-08-29 07:00:00,
2013-08-29 04:00:00,73.0,69.2,29.96,NNE,18,0.0,6.0,88,0.00,,,0.00,0,Wunderground v.1.15,2013-08-29 08:00:00,
2013-08-29 05:00:00,71.6,68.8,29.97,NNE,18,0.0,6.0,91,0.00,,,0.00,0,Wunderground v.1.15,2013-08-29 09:00:00,
2013-08-29 06:00:00,71.3,69.2,29.97,NNE,18,0.0,6.0,93,0.00,,,0.00,0,Wunderground v.1.15,2013-08-29 10:00:00,
2013-08-29 07:00:00,71.1,69.0,29.98,NNE,18,0.0,6.0,93,0.00,,,0.00,0,Wunderground v.1.15,2013-08-29 11:00:00,
2013-08-29 08:00:00,72.0,69.9,30.00,WNW,294,0.0,6.0,93,0.00,,,0.00,21,Wunderground v.1.15,2013-08-29 12:00:00,
2013-08-29 09:00:00,74.7,70.2,30.00,South,179,0.0,6.0,86,0.00,,,0.00,69,Wunderground v.1.15,2013-08-29 13:00:00,
2013-08-29 10:00:00,78.3,70.5,30.00,South,184,0.0,6.0,77,0.00,,,0.00,120,Wunderground v.1.15,2013-08-29 14:00:00,
2013-08-29 11:00:00,82.2,70.6,30.00,WNW,301,0.0,6.0,68,0.00,,,0.00,568,Wunderground v.1.15,2013-08-29 15:00:00,
2013-08-29 12:00:00,85.7,71.2,29.99,North,355,0.0,6.0,62,0.00,,,0.00,708,Wunderground v.1.15,2013-08-29 16:00:00,
2013-08-29 13:00:00,86.7,70.7,29.98,NNE,19,0.0,6.0,59,0.00,,,0.00,295,Wunderground v.1.15,2013-08-29 17:00:00,
2013-08-29 14:00:00,88.0,70.3,29.97,NNE,12,1.0,6.0,56,0.00,,,0.00,367,Wunderground v.1.15,2013-08-29 18:00:00,
2013-08-29 15:00:00,88.6,70.4,29.95,North,351,1.0,6.0,55,0.00,,,0.00,281,Wunderground v.1.15,2013-08-29 19:00:00,
2013-08-29 16:00:00,88.8,70.5,29.93,North,351,1.0,7.0,55,0.00,,,0.00,197,Wunderground v.1.15,2013-08-29 20:00:00,
2013-08-29 19:00:00,88.0,71.4,29.91,NNE,23,2.0,2.0,58,0.00,,,0.00,125,Wunderground v.1.15,2013-08-29 23:00:00,
2013-08-29 20:00:00,86.5,71.5,29.92,North,5,0.0,7.0,61,0.00,,,0.00,19,Wunderground v.1.15,2013-08-30 00:00:00,
2013-08-29 21:00:00,84.1,72.0,29.92,North,5,0.0,7.0,67,0.00,,,0.00,0,Wunderground v.1.15,2013-08-30 01:00:00,
2013-08-29 22:00:00,81.8,73.1,29.94,North,5,0.0,7.0,75,0.00,,,0.00,0,Wunderground v.1.15,2013-08-30 02:00:00,
2013-08-29 23:00:00,80.7,73.6,29.94,North,5,0.0,7.0,79,0.00,,,0.00,0,Wunderground v.1.15,2013-08-30 03:00:00,